sensor_id;sensor_type;location;lat;lon;timestamp;temperature;humidity
13598;DHT22;38563;54.258;12.574;2022-09-03T00:02:37;13.10;99.90
13598;DHT22;38563;54.258;12.574;2022-09-03T00:05:08;13.20;99.90
13598;DHT22;38563;54.258;12.574;2022-09-03T00:07:44;13.30;99.90
13598;DHT22;38563;54.258;12.574;2022-09-03T00:10:17;13.40;99.90
13598;DHT22;38563;54.258;12.574;2022-09-03T00:12:46;13.40;99.90
13598;DHT22;38563;54.258;12.574;2022-09-03T00:15:17;13.40;99.90
13598;DHT22;38563;54.258;12.574;2022-09-03T00:17:48;13.50;99.90
13598;DHT22;38563;54.258;12.574;2022-09-03T00:20:20;13.50;99.90
13598;DHT22;38563;54.258;12.574;2022-09-03T00:22:52;13.60;99.90
13598;DHT22;38563;54.258;12.574;2022-09-03T00:25:23;13.60;99.90
13598;DHT22;38563;54.258;12.574;2022-09-03T00:27:52;13.60;99.90
13598;DHT22;38563;54.258;12.574;2022-09-03T00:30:20;13.60;99.90
13598;DHT22;38563;54.258;12.574;2022-09-03T00:32:53;13.70;99.90
13598;DHT22;38563;54.258;12.574;2022-09-03T00:35:26;13.60;99.90
13598;DHT22;38563;54.258;12.574;2022-09-03T00:37:55;13.70;99.90
13598;DHT22;38563;54.258;12.574;2022-09-03T00:40:37;13.70;99.90
13598;DHT22;38563;54.258;12.574;2022-09-03T00:43:14;13.70;99.90
13598;DHT22;38563;54.258;12.574;2022-09-03T00:45:50;13.70;99.90
13598;DHT22;38563;54.258;12.574;2022-09-03T00:48:22;13.70;99.90
13598;DHT22;38563;54.258;12.574;2022-09-03T00:51:03;13.70;99.90
13598;DHT22;38563;54.258;12.574;2022-09-03T00:53:39;13.70;99.90
13598;DHT22;38563;54.258;12.574;2022-09-03T00:56:14;13.70;99.90
13598;DHT22;38563;54.258;12.574;2022-09-03T00:58:57;13.80;99.90
13598;DHT22;38563;54.258;12.574;2022-09-03T01:01:30;13.80;99.90
13598;DHT22;38563;54.258;12.574;2022-09-03T01:04:07;13.80;99.90
13598;DHT22;38563;54.258;12.574;2022-09-03T01:06:41;13.80;99.90
13598;DHT22;38563;54.258;12.574;2022-09-03T01:09:22;13.80;99.90
13598;DHT22;38563;54.258;12.574;2022-09-03T01:11:58;13.80;99.90
13598;DHT22;38563;54.258;12.574;2022-09-03T01:14:37;13.80;99.90
13598;DHT22;38563;54.258;12.574;2022-09-03T01:17:15;13.80;99.90
13598;DHT22;38563;54.258;12.574;2022-09-03T01:19:58;13.80;99.90
13598;DHT22;38563;54.258;12.574;2022-09-03T01:23:05;13.80;99.90
13598;DHT22;38563;54.258;12.574;2022-09-03T01:25:48;13.80;99.90
13598;DHT22;38563;54.258;12.574;2022-09-03T01:28:31;13.80;99.90
13598;DHT22;38563;54.258;12.574;2022-09-03T01:31:15;13.80;99.90
13598;DHT22;38563;54.258;12.574;2022-09-03T01:33:49;13.80;99.90
13598;DHT22;38563;54.258;12.574;2022-09-03T01:36:22;13.90;99.90
13598;DHT22;38563;54.258;12.574;2022-09-03T01:38:54;13.90;99.90
13598;DHT22;38563;54.258;12.574;2022-09-03T01:41:28;13.90;99.90
13598;DHT22;38563;54.258;12.574;2022-09-03T01:44:25;13.90;99.90
13598;DHT22;38563;54.258;12.574;2022-09-03T01:47:04;13.90;99.90
13598;DHT22;38563;54.258;12.574;2022-09-03T01:49:39;13.80;99.90
13598;DHT22;38563;54.258;12.574;2022-09-03T01:52:11;13.90;99.90
13598;DHT22;38563;54.258;12.574;2022-09-03T01:54:52;13.90;99.90
13598;DHT22;38563;54.258;12.574;2022-09-03T01:57:34;13.90;99.90
13598;DHT22;38563;54.258;12.574;2022-09-03T02:00:07;13.90;99.90
13598;DHT22;38563;54.258;12.574;2022-09-03T02:02:40;13.90;99.90
13598;DHT22;38563;54.258;12.574;2022-09-03T02:05:10;14.00;99.90
13598;DHT22;38563;54.258;12.574;2022-09-03T02:07:39;14.00;99.90
13598;DHT22;38563;54.258;12.574;2022-09-03T02:10:08;14.00;99.90
13598;DHT22;38563;54.258;12.574;2022-09-03T02:12:38;14.00;99.90
13598;DHT22;38563;54.258;12.574;2022-09-03T02:15:11;14.00;99.90
13598;DHT22;38563;54.258;12.574;2022-09-03T02:17:40;14.00;99.90
13598;DHT22;38563;54.258;12.574;2022-09-03T02:20:09;14.00;99.90
13598;DHT22;38563;54.258;12.574;2022-09-03T02:22:38;14.00;99.90
13598;DHT22;38563;54.258;12.574;2022-09-03T02:25:05;14.00;99.90
13598;DHT22;38563;54.258;12.574;2022-09-03T02:27:32;14.00;99.90
13598;DHT22;38563;54.258;12.574;2022-09-03T02:29:59;14.00;99.90
13598;DHT22;38563;54.258;12.574;2022-09-03T02:32:27;14.00;99.90
13598;DHT22;38563;54.258;12.574;2022-09-03T02:34:54;14.00;99.90
13598;DHT22;38563;54.258;12.574;2022-09-03T02:37:21;14.00;99.90
13598;DHT22;38563;54.258;12.574;2022-09-03T02:39:48;14.10;99.90
13598;DHT22;38563;54.258;12.574;2022-09-03T02:42:17;14.10;99.90
13598;DHT22;38563;54.258;12.574;2022-09-03T02:44:47;14.10;99.90
13598;DHT22;38563;54.258;12.574;2022-09-03T02:47:15;14.10;99.90
13598;DHT22;38563;54.258;12.574;2022-09-03T02:49:46;14.20;99.90
13598;DHT22;38563;54.258;12.574;2022-09-03T02:52:13;14.10;99.90
13598;DHT22;38563;54.258;12.574;2022-09-03T02:54:40;14.10;99.90
13598;DHT22;38563;54.258;12.574;2022-09-03T02:57:11;14.10;99.90
13598;DHT22;38563;54.258;12.574;2022-09-03T02:59:38;14.20;99.90
13598;DHT22;38563;54.258;12.574;2022-09-03T03:02:06;14.20;99.90
13598;DHT22;38563;54.258;12.574;2022-09-03T03:04:33;14.10;99.90
13598;DHT22;38563;54.258;12.574;2022-09-03T03:07:01;14.10;99.90
13598;DHT22;38563;54.258;12.574;2022-09-03T03:09:28;14.20;99.90
13598;DHT22;38563;54.258;12.574;2022-09-03T03:11:54;14.10;99.90
13598;DHT22;38563;54.258;12.574;2022-09-03T03:14:21;14.10;99.90
13598;DHT22;38563;54.258;12.574;2022-09-03T03:16:49;14.10;99.90
13598;DHT22;38563;54.258;12.574;2022-09-03T03:19:16;14.20;99.90
13598;DHT22;38563;54.258;12.574;2022-09-03T03:21:43;14.20;99.90
13598;DHT22;38563;54.258;12.574;2022-09-03T03:24:11;14.20;99.90
13598;DHT22;38563;54.258;12.574;2022-09-03T03:26:37;14.20;99.90
13598;DHT22;38563;54.258;12.574;2022-09-03T03:29:04;14.10;99.90
13598;DHT22;38563;54.258;12.574;2022-09-03T03:31:32;14.10;99.90
13598;DHT22;38563;54.258;12.574;2022-09-03T03:34:00;14.10;99.90
13598;DHT22;38563;54.258;12.574;2022-09-03T03:36:29;14.00;99.90
13598;DHT22;38563;54.258;12.574;2022-09-03T03:38:57;14.00;99.90
13598;DHT22;38563;54.258;12.574;2022-09-03T03:41:27;14.10;99.90
13598;DHT22;38563;54.258;12.574;2022-09-03T03:43:56;14.00;99.90
13598;DHT22;38563;54.258;12.574;2022-09-03T03:46:24;14.00;99.90
13598;DHT22;38563;54.258;12.574;2022-09-03T03:48:53;14.00;99.90
13598;DHT22;38563;54.258;12.574;2022-09-03T03:51:20;14.00;99.90
13598;DHT22;38563;54.258;12.574;2022-09-03T03:53:47;14.00;99.90
13598;DHT22;38563;54.258;12.574;2022-09-03T03:56:14;14.00;99.90
13598;DHT22;38563;54.258;12.574;2022-09-03T03:58:43;13.90;99.90
13598;DHT22;38563;54.258;12.574;2022-09-03T04:01:11;13.90;99.90
13598;DHT22;38563;54.258;12.574;2022-09-03T04:03:38;13.90;99.90
13598;DHT22;38563;54.258;12.574;2022-09-03T04:06:06;13.90;99.90
13598;DHT22;38563;54.258;12.574;2022-09-03T04:08:34;13.90;99.90
13598;DHT22;38563;54.258;12.574;2022-09-03T04:11:02;13.90;99.90
13598;DHT22;38563;54.258;12.574;2022-09-03T04:13:30;13.90;99.90
13598;DHT22;38563;54.258;12.574;2022-09-03T04:16:02;13.90;99.90
13598;DHT22;38563;54.258;12.574;2022-09-03T04:18:30;13.90;99.90
13598;DHT22;38563;54.258;12.574;2022-09-03T04:21:01;13.80;99.90
13598;DHT22;38563;54.258;12.574;2022-09-03T04:23:29;13.80;99.90
13598;DHT22;38563;54.258;12.574;2022-09-03T04:25:56;13.90;99.90
13598;DHT22;38563;54.258;12.574;2022-09-03T04:28:23;13.90;99.90
13598;DHT22;38563;54.258;12.574;2022-09-03T04:30:50;13.80;99.90
13598;DHT22;38563;54.258;12.574;2022-09-03T04:33:18;13.80;99.90
13598;DHT22;38563;54.258;12.574;2022-09-03T04:35:45;13.80;99.90
13598;DHT22;38563;54.258;12.574;2022-09-03T04:38:12;13.80;99.90
13598;DHT22;38563;54.258;12.574;2022-09-03T04:40:39;13.80;99.90
13598;DHT22;38563;54.258;12.574;2022-09-03T04:43:06;13.90;99.90
13598;DHT22;38563;54.258;12.574;2022-09-03T04:45:32;13.90;99.90
13598;DHT22;38563;54.258;12.574;2022-09-03T04:48:00;13.90;99.90
13598;DHT22;38563;54.258;12.574;2022-09-03T04:50:28;13.80;99.90
13598;DHT22;38563;54.258;12.574;2022-09-03T04:52:59;13.80;99.90
13598;DHT22;38563;54.258;12.574;2022-09-03T04:55:26;13.80;99.90
13598;DHT22;38563;54.258;12.574;2022-09-03T04:57:53;13.70;99.90
13598;DHT22;38563;54.258;12.574;2022-09-03T05:00:20;13.70;99.90
13598;DHT22;38563;54.258;12.574;2022-09-03T05:02:46;13.60;99.90
13598;DHT22;38563;54.258;12.574;2022-09-03T05:05:16;13.50;99.90
13598;DHT22;38563;54.258;12.574;2022-09-03T05:07:44;13.50;99.90
13598;DHT22;38563;54.258;12.574;2022-09-03T05:10:13;13.40;99.90
13598;DHT22;38563;54.258;12.574;2022-09-03T05:12:45;13.30;99.90
13598;DHT22;38563;54.258;12.574;2022-09-03T05:15:12;13.30;99.90
13598;DHT22;38563;54.258;12.574;2022-09-03T05:17:38;13.30;99.90
13598;DHT22;38563;54.258;12.574;2022-09-03T05:20:06;13.30;99.90
13598;DHT22;38563;54.258;12.574;2022-09-03T05:22:33;13.20;99.90
13598;DHT22;38563;54.258;12.574;2022-09-03T05:25:01;13.30;99.90
13598;DHT22;38563;54.258;12.574;2022-09-03T05:27:27;13.20;99.90
13598;DHT22;38563;54.258;12.574;2022-09-03T05:29:54;13.30;99.90
13598;DHT22;38563;54.258;12.574;2022-09-03T05:32:21;13.30;99.90
13598;DHT22;38563;54.258;12.574;2022-09-03T05:34:47;13.30;99.90
13598;DHT22;38563;54.258;12.574;2022-09-03T05:37:14;13.30;99.90
13598;DHT22;38563;54.258;12.574;2022-09-03T05:39:40;13.40;99.90
13598;DHT22;38563;54.258;12.574;2022-09-03T05:42:08;13.50;99.90
13598;DHT22;38563;54.258;12.574;2022-09-03T05:44:38;13.50;99.90
13598;DHT22;38563;54.258;12.574;2022-09-03T05:47:05;13.60;99.90
13598;DHT22;38563;54.258;12.574;2022-09-03T05:49:31;13.70;99.90
13598;DHT22;38563;54.258;12.574;2022-09-03T05:51:58;13.80;99.90
13598;DHT22;38563;54.258;12.574;2022-09-03T05:54:25;13.80;99.90
13598;DHT22;38563;54.258;12.574;2022-09-03T05:56:51;13.90;99.90
13598;DHT22;38563;54.258;12.574;2022-09-03T05:59:20;13.90;99.90
13598;DHT22;38563;54.258;12.574;2022-09-03T06:01:47;14.00;99.90
13598;DHT22;38563;54.258;12.574;2022-09-03T06:04:14;14.00;99.90
13598;DHT22;38563;54.258;12.574;2022-09-03T06:06:43;14.10;99.90
13598;DHT22;38563;54.258;12.574;2022-09-03T06:09:12;14.10;99.90
13598;DHT22;38563;54.258;12.574;2022-09-03T06:11:41;14.10;99.90
13598;DHT22;38563;54.258;12.574;2022-09-03T06:14:10;14.20;99.90
13598;DHT22;38563;54.258;12.574;2022-09-03T06:16:39;14.20;99.90
13598;DHT22;38563;54.258;12.574;2022-09-03T06:19:07;14.20;99.90
13598;DHT22;38563;54.258;12.574;2022-09-03T06:21:35;14.30;99.90
13598;DHT22;38563;54.258;12.574;2022-09-03T06:24:03;14.30;99.90
13598;DHT22;38563;54.258;12.574;2022-09-03T06:26:30;14.30;99.90
13598;DHT22;38563;54.258;12.574;2022-09-03T06:28:57;14.30;99.90
13598;DHT22;38563;54.258;12.574;2022-09-03T06:31:24;14.30;99.90
13598;DHT22;38563;54.258;12.574;2022-09-03T06:33:53;14.40;99.90
13598;DHT22;38563;54.258;12.574;2022-09-03T06:36:21;14.50;99.90
13598;DHT22;38563;54.258;12.574;2022-09-03T06:38:51;14.60;99.90
13598;DHT22;38563;54.258;12.574;2022-09-03T06:41:20;14.70;99.90
13598;DHT22;38563;54.258;12.574;2022-09-03T06:43:50;14.80;99.90
13598;DHT22;38563;54.258;12.574;2022-09-03T06:46:19;14.90;99.90
13598;DHT22;38563;54.258;12.574;2022-09-03T06:48:47;15.00;99.90
13598;DHT22;38563;54.258;12.574;2022-09-03T06:51:18;15.00;99.90
13598;DHT22;38563;54.258;12.574;2022-09-03T06:53:47;15.10;99.90
13598;DHT22;38563;54.258;12.574;2022-09-03T06:56:15;15.20;99.90
13598;DHT22;38563;54.258;12.574;2022-09-03T06:58:44;15.30;99.90
13598;DHT22;38563;54.258;12.574;2022-09-03T07:01:13;15.40;99.90
13598;DHT22;38563;54.258;12.574;2022-09-03T07:03:41;15.40;99.90
13598;DHT22;38563;54.258;12.574;2022-09-03T07:06:10;15.50;99.90
13598;DHT22;38563;54.258;12.574;2022-09-03T07:08:38;15.50;99.90
13598;DHT22;38563;54.258;12.574;2022-09-03T07:11:08;15.60;99.90
13598;DHT22;38563;54.258;12.574;2022-09-03T07:13:36;15.60;99.90
13598;DHT22;38563;54.258;12.574;2022-09-03T07:16:06;15.70;99.90
13598;DHT22;38563;54.258;12.574;2022-09-03T07:18:33;15.90;99.90
13598;DHT22;38563;54.258;12.574;2022-09-03T07:21:01;15.90;99.90
13598;DHT22;38563;54.258;12.574;2022-09-03T07:23:29;16.10;99.90
13598;DHT22;38563;54.258;12.574;2022-09-03T07:26:00;16.20;99.90
13598;DHT22;38563;54.258;12.574;2022-09-03T07:28:27;16.20;99.90
13598;DHT22;38563;54.258;12.574;2022-09-03T07:31:01;16.20;99.90
13598;DHT22;38563;54.258;12.574;2022-09-03T07:33:28;16.20;99.90
13598;DHT22;38563;54.258;12.574;2022-09-03T07:36:00;16.20;99.90
13598;DHT22;38563;54.258;12.574;2022-09-03T07:38:27;16.20;99.90
13598;DHT22;38563;54.258;12.574;2022-09-03T07:40:56;16.30;99.90
13598;DHT22;38563;54.258;12.574;2022-09-03T07:43:25;16.40;99.90
13598;DHT22;38563;54.258;12.574;2022-09-03T07:45:52;16.50;99.90
13598;DHT22;38563;54.258;12.574;2022-09-03T07:48:20;16.60;99.90
13598;DHT22;38563;54.258;12.574;2022-09-03T07:50:46;16.70;99.90
13598;DHT22;38563;54.258;12.574;2022-09-03T07:53:14;16.80;99.90
13598;DHT22;38563;54.258;12.574;2022-09-03T07:55:41;17.00;99.90
13598;DHT22;38563;54.258;12.574;2022-09-03T07:58:08;17.10;99.90
13598;DHT22;38563;54.258;12.574;2022-09-03T08:00:37;17.20;99.90
13598;DHT22;38563;54.258;12.574;2022-09-03T08:03:04;17.30;99.90
13598;DHT22;38563;54.258;12.574;2022-09-03T08:05:33;17.20;99.90
13598;DHT22;38563;54.258;12.574;2022-09-03T08:08:01;17.10;99.90
13598;DHT22;38563;54.258;12.574;2022-09-03T08:10:27;17.20;99.90
13598;DHT22;38563;54.258;12.574;2022-09-03T08:12:55;17.30;99.90
13598;DHT22;38563;54.258;12.574;2022-09-03T08:15:22;17.40;99.90
13598;DHT22;38563;54.258;12.574;2022-09-03T08:17:50;17.50;99.90
13598;DHT22;38563;54.258;12.574;2022-09-03T08:20:17;17.60;99.90
13598;DHT22;38563;54.258;12.574;2022-09-03T08:22:44;17.60;99.90
13598;DHT22;38563;54.258;12.574;2022-09-03T08:25:10;17.60;99.90
13598;DHT22;38563;54.258;12.574;2022-09-03T08:27:38;17.80;99.90
13598;DHT22;38563;54.258;12.574;2022-09-03T08:30:06;17.80;99.90
13598;DHT22;38563;54.258;12.574;2022-09-03T08:32:35;17.80;99.90
13598;DHT22;38563;54.258;12.574;2022-09-03T08:35:04;17.80;99.90
13598;DHT22;38563;54.258;12.574;2022-09-03T08:37:31;17.90;99.90
13598;DHT22;38563;54.258;12.574;2022-09-03T08:39:58;18.10;99.90
13598;DHT22;38563;54.258;12.574;2022-09-03T08:42:40;18.10;99.90
13598;DHT22;38563;54.258;12.574;2022-09-03T08:45:12;18.30;99.90
13598;DHT22;38563;54.258;12.574;2022-09-03T08:47:44;18.30;99.90
13598;DHT22;38563;54.258;12.574;2022-09-03T08:50:21;18.30;99.90
13598;DHT22;38563;54.258;12.574;2022-09-03T08:52:50;18.40;99.90
13598;DHT22;38563;54.258;12.574;2022-09-03T08:55:22;18.30;99.90
13598;DHT22;38563;54.258;12.574;2022-09-03T08:57:55;18.30;99.90
13598;DHT22;38563;54.258;12.574;2022-09-03T09:00:23;18.30;99.90
13598;DHT22;38563;54.258;12.574;2022-09-03T09:03:05;18.20;99.90
13598;DHT22;38563;54.258;12.574;2022-09-03T09:05:43;18.30;99.90
13598;DHT22;38563;54.258;12.574;2022-09-03T09:08:19;18.60;99.90
13598;DHT22;38563;54.258;12.574;2022-09-03T09:10:48;18.60;99.90
13598;DHT22;38563;54.258;12.574;2022-09-03T09:13:23;18.60;99.90
13598;DHT22;38563;54.258;12.574;2022-09-03T09:15:57;18.70;99.90
13598;DHT22;38563;54.258;12.574;2022-09-03T09:18:39;19.00;99.90
13598;DHT22;38563;54.258;12.574;2022-09-03T09:21:14;19.00;99.90
13598;DHT22;38563;54.258;12.574;2022-09-03T09:23:43;18.90;99.90
13598;DHT22;38563;54.258;12.574;2022-09-03T09:26:14;19.10;99.90
13598;DHT22;38563;54.258;12.574;2022-09-03T09:28:41;19.10;99.90
13598;DHT22;38563;54.258;12.574;2022-09-03T09:31:13;19.30;99.90
13598;DHT22;38563;54.258;12.574;2022-09-03T09:33:43;19.30;99.90
13598;DHT22;38563;54.258;12.574;2022-09-03T09:36:13;19.30;99.90
13598;DHT22;38563;54.258;12.574;2022-09-03T09:38:42;19.30;99.90
13598;DHT22;38563;54.258;12.574;2022-09-03T09:41:11;19.30;99.90
13598;DHT22;38563;54.258;12.574;2022-09-03T09:43:38;19.40;99.90
13598;DHT22;38563;54.258;12.574;2022-09-03T09:46:06;19.50;99.90
13598;DHT22;38563;54.258;12.574;2022-09-03T09:48:38;19.80;99.90
13598;DHT22;38563;54.258;12.574;2022-09-03T09:51:11;19.90;99.90
13598;DHT22;38563;54.258;12.574;2022-09-03T09:53:39;20.10;99.90
13598;DHT22;38563;54.258;12.574;2022-09-03T09:56:06;20.10;99.90
13598;DHT22;38563;54.258;12.574;2022-09-03T09:58:34;20.00;99.90
13598;DHT22;38563;54.258;12.574;2022-09-03T10:01:03;19.80;99.90
13598;DHT22;38563;54.258;12.574;2022-09-03T10:03:40;19.80;99.90
13598;DHT22;38563;54.258;12.574;2022-09-03T10:06:08;20.00;99.90
13598;DHT22;38563;54.258;12.574;2022-09-03T10:09:05;20.20;99.90
13598;DHT22;38563;54.258;12.574;2022-09-03T10:11:33;20.40;99.90
13598;DHT22;38563;54.258;12.574;2022-09-03T10:14:02;20.30;99.90
13598;DHT22;38563;54.258;12.574;2022-09-03T10:16:34;20.30;99.90
13598;DHT22;38563;54.258;12.574;2022-09-03T10:19:08;20.40;99.90
13598;DHT22;38563;54.258;12.574;2022-09-03T10:21:42;20.40;99.90
13598;DHT22;38563;54.258;12.574;2022-09-03T10:27:15;20.20;99.90
13598;DHT22;38563;54.258;12.574;2022-09-03T10:29:43;20.20;99.90
13598;DHT22;38563;54.258;12.574;2022-09-03T10:32:21;20.10;99.90
13598;DHT22;38563;54.258;12.574;2022-09-03T10:34:56;20.10;99.90
13598;DHT22;38563;54.258;12.574;2022-09-03T10:37:33;20.10;99.90
13598;DHT22;38563;54.258;12.574;2022-09-03T10:40:14;20.10;99.90
13598;DHT22;38563;54.258;12.574;2022-09-03T10:42:45;20.20;99.90
13598;DHT22;38563;54.258;12.574;2022-09-03T10:45:18;20.00;99.90
13598;DHT22;38563;54.258;12.574;2022-09-03T10:48:02;19.70;99.90
13598;DHT22;38563;54.258;12.574;2022-09-03T10:50:37;19.80;99.90
13598;DHT22;38563;54.258;12.574;2022-09-03T10:53:12;20.00;99.90
13598;DHT22;38563;54.258;12.574;2022-09-03T10:55:47;20.20;99.90
13598;DHT22;38563;54.258;12.574;2022-09-03T10:58:33;20.00;99.90
13598;DHT22;38563;54.258;12.574;2022-09-03T11:01:09;20.10;99.90
13598;DHT22;38563;54.258;12.574;2022-09-03T11:03:42;20.20;99.90
13598;DHT22;38563;54.258;12.574;2022-09-03T11:06:14;20.30;99.90
13598;DHT22;38563;54.258;12.574;2022-09-03T11:08:47;20.60;99.90
13598;DHT22;38563;54.258;12.574;2022-09-03T11:11:20;20.60;99.90
13598;DHT22;38563;54.258;12.574;2022-09-03T11:13:54;20.50;99.90
13598;DHT22;38563;54.258;12.574;2022-09-03T11:16:26;20.50;99.90
13598;DHT22;38563;54.258;12.574;2022-09-03T11:18:59;20.60;99.90
13598;DHT22;38563;54.258;12.574;2022-09-03T11:21:29;20.70;99.90
13598;DHT22;38563;54.258;12.574;2022-09-03T11:24:03;20.70;99.90
13598;DHT22;38563;54.258;12.574;2022-09-03T11:26:33;20.60;99.90
13598;DHT22;38563;54.258;12.574;2022-09-03T11:29:05;20.70;99.90
13598;DHT22;38563;54.258;12.574;2022-09-03T11:31:45;21.00;99.90
13598;DHT22;38563;54.258;12.574;2022-09-03T11:34:15;21.30;99.90
13598;DHT22;38563;54.258;12.574;2022-09-03T11:37:02;21.60;99.90
13598;DHT22;38563;54.258;12.574;2022-09-03T11:39:33;21.70;99.90
13598;DHT22;38563;54.258;12.574;2022-09-03T11:42:04;22.10;99.90
13598;DHT22;38563;54.258;12.574;2022-09-03T11:44:36;22.30;99.90
13598;DHT22;38563;54.258;12.574;2022-09-03T11:47:13;22.40;99.90
13598;DHT22;38563;54.258;12.574;2022-09-03T11:49:45;22.40;99.90
13598;DHT22;38563;54.258;12.574;2022-09-03T11:52:12;22.30;99.90
13598;DHT22;38563;54.258;12.574;2022-09-03T11:54:43;22.50;99.90
13598;DHT22;38563;54.258;12.574;2022-09-03T11:57:13;22.60;99.90
13598;DHT22;38563;54.258;12.574;2022-09-03T11:59:41;22.60;99.90
13598;DHT22;38563;54.258;12.574;2022-09-03T12:02:20;22.50;99.90
13598;DHT22;38563;54.258;12.574;2022-09-03T12:04:54;22.50;99.90
13598;DHT22;38563;54.258;12.574;2022-09-03T12:07:37;22.50;99.90
13598;DHT22;38563;54.258;12.574;2022-09-03T12:10:24;22.60;99.90
13598;DHT22;38563;54.258;12.574;2022-09-03T12:13:01;22.70;99.90
13598;DHT22;38563;54.258;12.574;2022-09-03T12:15:49;22.70;99.90
13598;DHT22;38563;54.258;12.574;2022-09-03T12:18:22;22.60;99.90
13598;DHT22;38563;54.258;12.574;2022-09-03T12:21:01;22.10;99.90
13598;DHT22;38563;54.258;12.574;2022-09-03T12:23:30;22.00;99.90
13598;DHT22;38563;54.258;12.574;2022-09-03T12:25:59;22.00;99.90
13598;DHT22;38563;54.258;12.574;2022-09-03T12:28:29;21.90;99.90
13598;DHT22;38563;54.258;12.574;2022-09-03T12:31:08;22.00;99.90
13598;DHT22;38563;54.258;12.574;2022-09-03T12:33:47;22.10;99.90
13598;DHT22;38563;54.258;12.574;2022-09-03T12:36:13;21.90;99.90
13598;DHT22;38563;54.258;12.574;2022-09-03T12:38:40;21.40;99.90
13598;DHT22;38563;54.258;12.574;2022-09-03T12:41:19;20.90;99.90
13598;DHT22;38563;54.258;12.574;2022-09-03T12:43:52;20.50;99.90
13598;DHT22;38563;54.258;12.574;2022-09-03T12:46:22;20.30;99.90
13598;DHT22;38563;54.258;12.574;2022-09-03T12:48:54;20.20;99.90
13598;DHT22;38563;54.258;12.574;2022-09-03T12:51:22;20.30;99.90
13598;DHT22;38563;54.258;12.574;2022-09-03T12:53:50;20.60;99.90
13598;DHT22;38563;54.258;12.574;2022-09-03T12:56:18;20.50;99.90
13598;DHT22;38563;54.258;12.574;2022-09-03T12:58:51;20.30;99.90
13598;DHT22;38563;54.258;12.574;2022-09-03T13:01:25;20.20;99.90
13598;DHT22;38563;54.258;12.574;2022-09-03T13:04:00;20.40;99.90
13598;DHT22;38563;54.258;12.574;2022-09-03T13:06:32;20.80;99.90
13598;DHT22;38563;54.258;12.574;2022-09-03T13:09:02;21.00;99.90
13598;DHT22;38563;54.258;12.574;2022-09-03T13:11:32;21.00;99.90
13598;DHT22;38563;54.258;12.574;2022-09-03T13:14:03;21.00;99.90
13598;DHT22;38563;54.258;12.574;2022-09-03T13:17:00;20.90;99.90
13598;DHT22;38563;54.258;12.574;2022-09-03T13:19:37;20.80;99.90
13598;DHT22;38563;54.258;12.574;2022-09-03T13:22:17;20.80;99.90
13598;DHT22;38563;54.258;12.574;2022-09-03T13:24:58;21.20;99.90
13598;DHT22;38563;54.258;12.574;2022-09-03T13:27:31;21.40;99.90
13598;DHT22;38563;54.258;12.574;2022-09-03T13:30:12;20.80;99.90
13598;DHT22;38563;54.258;12.574;2022-09-03T13:32:46;20.40;99.90
13598;DHT22;38563;54.258;12.574;2022-09-03T13:35:23;20.30;99.90
13598;DHT22;38563;54.258;12.574;2022-09-03T13:37:54;20.10;99.90
13598;DHT22;38563;54.258;12.574;2022-09-03T13:40:25;20.30;99.90
13598;DHT22;38563;54.258;12.574;2022-09-03T13:43:02;20.80;99.90
13598;DHT22;38563;54.258;12.574;2022-09-03T13:45:36;21.30;99.90
13598;DHT22;38563;54.258;12.574;2022-09-03T13:48:09;21.10;99.90
13598;DHT22;38563;54.258;12.574;2022-09-03T13:51:03;20.70;99.90
13598;DHT22;38563;54.258;12.574;2022-09-03T13:53:41;21.00;99.90
13598;DHT22;38563;54.258;12.574;2022-09-03T13:56:22;20.90;99.90
13598;DHT22;38563;54.258;12.574;2022-09-03T13:58:57;20.50;99.90
13598;DHT22;38563;54.258;12.574;2022-09-03T14:01:40;20.20;99.90
13598;DHT22;38563;54.258;12.574;2022-09-03T14:04:16;20.00;99.90
13598;DHT22;38563;54.258;12.574;2022-09-03T14:06:48;20.00;99.90
13598;DHT22;38563;54.258;12.574;2022-09-03T14:09:26;19.90;99.90
13598;DHT22;38563;54.258;12.574;2022-09-03T14:12:02;19.70;99.90
13598;DHT22;38563;54.258;12.574;2022-09-03T14:14:38;19.70;99.90
13598;DHT22;38563;54.258;12.574;2022-09-03T14:17:13;19.70;99.90
13598;DHT22;38563;54.258;12.574;2022-09-03T14:19:45;19.90;99.90
13598;DHT22;38563;54.258;12.574;2022-09-03T14:22:16;20.50;99.90
13598;DHT22;38563;54.258;12.574;2022-09-03T14:24:47;21.10;99.90
13598;DHT22;38563;54.258;12.574;2022-09-03T14:27:22;21.70;99.90
13598;DHT22;38563;54.258;12.574;2022-09-03T14:29:52;22.10;99.90
13598;DHT22;38563;54.258;12.574;2022-09-03T14:32:28;22.20;99.90
13598;DHT22;38563;54.258;12.574;2022-09-03T14:35:11;22.00;99.90
13598;DHT22;38563;54.258;12.574;2022-09-03T14:38:12;21.40;99.90
13598;DHT22;38563;54.258;12.574;2022-09-03T14:40:44;20.50;99.90
13598;DHT22;38563;54.258;12.574;2022-09-03T14:43:28;19.90;99.90
13598;DHT22;38563;54.258;12.574;2022-09-03T14:46:08;19.60;99.90
13598;DHT22;38563;54.258;12.574;2022-09-03T14:48:50;20.30;99.90
13598;DHT22;38563;54.258;12.574;2022-09-03T14:51:32;20.70;99.90
13598;DHT22;38563;54.258;12.574;2022-09-03T14:57:07;19.80;99.90
13598;DHT22;38563;54.258;12.574;2022-09-03T15:00:01;19.40;99.90
13598;DHT22;38563;54.258;12.574;2022-09-03T15:02:58;19.30;99.90
13598;DHT22;38563;54.258;12.574;2022-09-03T15:05:40;19.30;99.90
13598;DHT22;38563;54.258;12.574;2022-09-03T15:08:13;19.30;99.90
13598;DHT22;38563;54.258;12.574;2022-09-03T15:10:45;19.20;99.90
13598;DHT22;38563;54.258;12.574;2022-09-03T15:13:17;19.10;99.90
13598;DHT22;38563;54.258;12.574;2022-09-03T15:15:53;19.10;99.90
13598;DHT22;38563;54.258;12.574;2022-09-03T15:18:29;19.00;99.90
13598;DHT22;38563;54.258;12.574;2022-09-03T15:21:05;19.00;99.90
13598;DHT22;38563;54.258;12.574;2022-09-03T15:23:51;19.10;99.90
13598;DHT22;38563;54.258;12.574;2022-09-03T15:26:38;19.30;99.90
13598;DHT22;38563;54.258;12.574;2022-09-03T15:29:35;19.60;99.90
13598;DHT22;38563;54.258;12.574;2022-09-03T15:32:09;19.40;99.90
13598;DHT22;38563;54.258;12.574;2022-09-03T15:34:48;19.30;99.90
13598;DHT22;38563;54.258;12.574;2022-09-03T15:37:22;19.20;99.90
13598;DHT22;38563;54.258;12.574;2022-09-03T15:39:59;19.10;99.90
13598;DHT22;38563;54.258;12.574;2022-09-03T15:42:27;19.20;99.90
13598;DHT22;38563;54.258;12.574;2022-09-03T15:45:01;19.30;99.90
13598;DHT22;38563;54.258;12.574;2022-09-03T15:47:34;19.50;99.90
13598;DHT22;38563;54.258;12.574;2022-09-03T15:50:06;19.60;99.90
13598;DHT22;38563;54.258;12.574;2022-09-03T15:52:40;19.60;99.90